KSBA/SBA METAR and TAF weather

Enter ICAO airport designator
Station Type Date Time Source
KSBA METAR 2021/07/28 20:53 UTC NOAA

KSBA 282053Z 24009KT 10SM CLR 23/16 A3002 RMK AO2 SLP165 T02280156 58003 $


Station Type Date Time Source
KSBA Decoded METAR 2021/07/28 20:53 UTC NOAA

SANTA BARBARA MUNICIPAL, CA, United States (KSBA) 34-26N 119-51W 3M
Jul 28, 2021 - 04:53 PM EDT / 2021.07.28 2053 UTC
Wind: from the WSW (240 degrees) at 10 MPH (9 KT):0
Visibility: 10 mile(s):0
Sky conditions: clear
Temperature: 73.0 F (22.8 C)
Dew Point: 60.1 F (15.6 C)
Relative Humidity: 63%
Pressure (altimeter): 30.02 in. Hg (1016 hPa)
Pressure tendency: 0.01 inches (0.3 hPa) lower than three hours ago
ob: KSBA 282053Z 24009KT 10SM CLR 23/16 A3002 RMK AO2 SLP165 T02280156 58003
cycle: 21

Station Type Date Time Source
KSBA TAF 2021/07/28 18:27 UTC NOAA

TAF KSBA 281724Z 2818/2918 23010KT P6SM SCT150
FM290200 VRB03KT P6SM SCT150
FM291000 VRB03KT 5SM BR OVC005
FM291600 VRB03KT P6SM SCT006

Example: see airport list